Terminal Aerodrome Forecast
Issued by NWS

Home | Current Version | Previous Version | Text Only | Print | Product List | Glossary Off
Versions: 1 2 3 4 5 6 7 8 9 10 11 12 13 14 15 16

467
FTUS43 KOAX 242110 AAA
TAFCDR
TAF AMD
KCDR 242110Z 2421/2518 17015G25KT P6SM BKN080
     FM242300 16010KT P6SM VCTS BKN080CB
      TEMPO 2423/2503 VRB25G35KT 3SM -TSRA BKN080CB
     FM250300 VRB05KT P6SM SCT100
     FM251500 26015G25KT P6SM SCT100=

USA.gov is the U.S. government's official web portal to all federal, state and local government web resources and services.